createdAt,value
2023-05-10T00:01:13.840Z,11.82
2023-05-10T00:03:41.509Z,19.90
2023-05-10T00:06:08.773Z,17.52
2023-05-10T00:08:36.028Z,21.42
2023-05-10T00:11:03.019Z,13.98
2023-05-10T00:13:30.225Z,15.00
2023-05-10T00:15:57.343Z,18.67
2023-05-10T00:18:24.448Z,17.83
2023-05-10T00:20:51.635Z,28.60
2023-05-10T00:23:18.657Z,28.23
2023-05-10T00:25:45.720Z,19.95
2023-05-10T00:28:12.801Z,23.23
2023-05-10T00:30:39.845Z,22.30
2023-05-10T00:33:07.281Z,15.30
2023-05-10T00:35:35.074Z,18.25
2023-05-10T00:38:02.104Z,19.52
2023-05-10T00:40:29.815Z,23.58
2023-05-10T00:43:01.684Z,23.15
2023-05-10T00:45:29.061Z,15.32
2023-05-10T00:47:58.174Z,19.63
2023-05-10T00:50:25.651Z,20.95
2023-05-10T00:52:53.652Z,15.95
2023-05-10T00:55:21.245Z,17.33
2023-05-10T00:57:48.584Z,16.08
2023-05-10T01:00:19.265Z,20.55
2023-05-10T01:02:47.555Z,13.93
2023-05-10T01:05:14.838Z,15.43
2023-05-10T01:07:42.333Z,24.95
2023-05-10T01:10:12.071Z,15.82
2023-05-10T01:12:42.283Z,17.63
2023-05-10T01:17:41.438Z,22.85
2023-05-10T01:20:10.496Z,17.00
2023-05-10T01:22:57.258Z,15.98
2023-05-10T01:26:16.633Z,18.63
2023-05-10T01:28:52.685Z,21.63
2023-05-10T01:31:34.322Z,19.63
2023-05-10T01:34:22.253Z,18.10
2023-05-10T01:37:02.292Z,17.38
2023-05-10T01:39:44.610Z,20.20
2023-05-10T01:42:15.449Z,23.73
2023-05-10T01:44:52.417Z,15.70
2023-05-10T01:47:39.887Z,17.40
2023-05-10T01:50:16.618Z,13.52
2023-05-10T01:52:48.240Z,16.60
2023-05-10T01:55:22.521Z,13.90
2023-05-10T01:57:59.873Z,13.25
2023-05-10T02:00:46.954Z,17.80
2023-05-10T02:03:16.300Z,18.80
2023-05-10T02:05:46.164Z,21.27
2023-05-10T02:08:52.270Z,16.20
2023-05-10T02:11:22.642Z,25.73
2023-05-10T02:13:52.820Z,17.40
2023-05-10T02:16:24.821Z,16.95
2023-05-10T02:18:53.319Z,16.20
2023-05-10T02:21:22.837Z,15.25
2023-05-10T02:23:53.149Z,14.25
2023-05-10T02:28:50.937Z,19.90
2023-05-10T02:31:20.024Z,23.42
2023-05-10T02:33:48.127Z,18.98
2023-05-10T02:36:17.469Z,18.50
2023-05-10T02:38:46.683Z,20.67
2023-05-10T02:41:15.405Z,18.85
2023-05-10T02:43:44.401Z,19.70
2023-05-10T02:46:11.670Z,24.30
2023-05-10T02:48:39.497Z,18.58
2023-05-10T02:51:08.562Z,24.10
2023-05-10T02:53:39.639Z,26.05
2023-05-10T02:56:14.509Z,19.60
2023-05-10T02:58:41.738Z,15.40
2023-05-10T03:01:09.252Z,24.45
2023-05-10T03:03:36.424Z,16.45
2023-05-10T03:06:05.428Z,21.67
2023-05-10T03:08:32.636Z,18.75
2023-05-10T03:11:19.108Z,16.98
2023-05-10T03:14:28.361Z,23.58
2023-05-10T03:17:11.319Z,20.02
2023-05-10T03:19:48.958Z,20.85
2023-05-10T03:22:41.226Z,24.42
2023-05-10T03:25:12.653Z,18.60
2023-05-10T03:27:44.498Z,28.00
2023-05-10T03:30:13.466Z,18.83
2023-05-10T03:32:41.226Z,30.40
2023-05-10T03:35:13.481Z,19.90
2023-05-10T03:37:40.647Z,26.75
2023-05-10T03:40:08.821Z,30.50
2023-05-10T03:42:38.217Z,24.98
2023-05-10T03:45:05.934Z,31.52
2023-05-10T03:47:34.102Z,33.17
2023-05-10T03:50:01.451Z,40.65
2023-05-10T03:52:33.058Z,26.27
2023-05-10T03:55:00.228Z,20.23
2023-05-10T03:57:27.388Z,29.50
2023-05-10T03:59:54.414Z,27.13
2023-05-10T04:02:21.401Z,29.33
2023-05-10T04:04:49.361Z,32.25
2023-05-10T04:07:16.519Z,24.98
2023-05-10T04:09:43.757Z,24.42
2023-05-10T04:12:11.233Z,20.33
2023-05-10T04:14:38.461Z,24.10
2023-05-10T04:17:05.687Z,25.70
2023-05-10T04:19:33.253Z,27.75
2023-05-10T04:22:00.821Z,33.03
2023-05-10T04:24:27.845Z,28.42
2023-05-10T04:26:57.525Z,36.83
2023-05-10T04:29:24.991Z,36.60
2023-05-10T04:31:52.101Z,29.20
2023-05-10T04:34:19.838Z,30.00
2023-05-10T04:36:46.810Z,25.98
2023-05-10T04:39:14.902Z,26.52
2023-05-10T04:41:42.123Z,20.88
2023-05-10T04:44:09.191Z,28.05
2023-05-10T04:46:36.439Z,29.48
2023-05-10T04:49:03.525Z,20.02
2023-05-10T04:51:30.613Z,34.47
2023-05-10T04:54:06.243Z,28.10
2023-05-10T04:56:34.757Z,24.55
2023-05-10T04:59:01.840Z,39.90
2023-05-10T05:01:29.200Z,29.35
2023-05-10T05:03:56.494Z,25.63
2023-05-10T05:06:23.776Z,40.97
2023-05-10T05:08:50.817Z,27.20
2023-05-10T05:11:22.235Z,36.70
2023-05-10T05:13:49.365Z,38.78
2023-05-10T05:16:16.463Z,27.55
2023-05-10T05:18:43.625Z,33.90
2023-05-10T05:21:18.021Z,26.75
2023-05-10T05:23:45.746Z,24.67
2023-05-10T05:26:12.840Z,43.67
2023-05-10T05:28:40.136Z,50.45
2023-05-10T05:31:11.051Z,41.70
2023-05-10T05:33:38.266Z,44.33
2023-05-10T05:36:06.759Z,37.72
2023-05-10T05:38:34.091Z,37.80
2023-05-10T05:41:01.347Z,34.88
2023-05-10T05:43:28.659Z,34.92
2023-05-10T05:45:56.109Z,37.28
2023-05-10T05:48:23.368Z,42.33
2023-05-10T05:50:50.463Z,37.72
2023-05-10T05:53:17.429Z,32.90
2023-05-10T05:55:54.482Z,33.70
2023-05-10T05:58:22.690Z,34.78
2023-05-10T06:00:50.471Z,38.53
2023-05-10T06:03:17.907Z,46.72
2023-05-10T06:05:45.190Z,43.22
2023-05-10T06:08:12.211Z,33.47
2023-05-10T06:10:39.291Z,17.65
2023-05-10T06:13:06.563Z,21.00
2023-05-10T06:15:33.879Z,39.95
2023-05-10T06:18:01.164Z,42.28
2023-05-10T06:20:28.597Z,35.17
2023-05-10T06:22:55.925Z,19.42
2023-05-10T06:25:23.109Z,19.08
2023-05-10T06:27:53.484Z,34.05
2023-05-10T06:30:21.366Z,23.63
2023-05-10T06:32:48.572Z,30.80
2023-05-10T06:35:15.783Z,15.13
2023-05-10T06:37:43.055Z,26.33
2023-05-10T06:40:10.543Z,6.28
2023-05-10T06:42:37.734Z,18.67
2023-05-10T06:45:05.284Z,3.78
2023-05-10T06:47:33.416Z,17.23
2023-05-10T06:50:00.895Z,14.48
2023-05-10T06:52:31.448Z,7.60
2023-05-10T06:54:58.854Z,8.63
2023-05-10T06:59:57.567Z,5.65
2023-05-10T07:02:24.601Z,5.95
2023-05-10T07:04:53.108Z,2.97
2023-05-10T07:07:20.476Z,4.07
2023-05-10T07:09:47.723Z,7.72
2023-05-10T07:12:15.847Z,7.95
2023-05-10T07:14:43.774Z,12.60
2023-05-10T07:17:11.116Z,7.18
2023-05-10T07:19:38.184Z,5.75
2023-05-10T07:22:05.239Z,6.90
2023-05-10T07:24:33.289Z,12.00
2023-05-10T07:27:00.542Z,6.90
2023-05-10T07:29:27.685Z,2.22
2023-05-10T07:31:57.103Z,5.03
2023-05-10T07:34:26.157Z,17.45
2023-05-10T07:36:53.875Z,6.80
2023-05-10T07:39:27.637Z,5.13
2023-05-10T07:41:56.002Z,4.53
2023-05-10T07:44:23.329Z,5.10
2023-05-10T07:46:50.590Z,6.10
2023-05-10T07:49:17.705Z,5.00
2023-05-10T07:51:44.928Z,2.78
2023-05-10T07:54:12.064Z,4.82
2023-05-10T07:56:39.081Z,8.27
2023-05-10T07:59:08.797Z,12.38
2023-05-10T08:01:37.103Z,14.85
2023-05-10T08:04:04.280Z,5.30
2023-05-10T08:06:31.541Z,32.45
2023-05-10T08:08:58.735Z,30.83
2023-05-10T08:11:26.177Z,17.33
2023-05-10T08:13:53.319Z,9.68
2023-05-10T08:16:20.905Z,5.28
2023-05-10T08:18:48.842Z,4.15
2023-05-10T08:21:16.810Z,4.32
2023-05-10T08:23:45.213Z,16.00
2023-05-10T08:26:12.537Z,9.93
2023-05-10T08:28:39.799Z,4.90
2023-05-10T08:31:07.497Z,7.55
2023-05-10T08:33:34.686Z,9.07
2023-05-10T08:36:01.822Z,13.98
2023-05-10T08:38:29.078Z,4.68
2023-05-10T08:41:00.100Z,6.40
2023-05-10T08:43:31.421Z,3.90
2023-05-10T08:46:01.775Z,4.38
2023-05-10T08:48:31.207Z,4.05
2023-05-10T08:51:01.852Z,2.35
2023-05-10T08:53:31.622Z,3.47
2023-05-10T08:55:58.865Z,2.50
2023-05-10T08:58:26.502Z,2.92
2023-05-10T09:00:54.676Z,3.70
2023-05-10T09:03:21.912Z,4.45
2023-05-10T09:05:50.293Z,6.43
2023-05-10T09:08:18.557Z,5.85
2023-05-10T09:10:48.316Z,4.07
2023-05-10T09:13:16.557Z,7.32
2023-05-10T09:15:45.214Z,7.28
2023-05-10T09:18:12.916Z,8.73
2023-05-10T09:20:39.995Z,5.68
2023-05-10T09:23:07.859Z,2.80
2023-05-10T09:25:35.507Z,2.92
2023-05-10T09:28:03.200Z,5.45
2023-05-10T09:30:31.752Z,3.55
2023-05-10T09:33:00.055Z,5.53
2023-05-10T09:35:30.149Z,3.92
2023-05-10T09:40:28.155Z,3.35
2023-05-10T09:42:59.291Z,6.30
2023-05-10T09:45:28.927Z,6.03
2023-05-10T09:47:57.092Z,3.08
2023-05-10T09:50:25.078Z,3.67
2023-05-10T09:52:54.716Z,9.07
2023-05-10T09:55:24.419Z,13.98
2023-05-10T09:58:02.152Z,16.73
2023-05-10T10:00:29.742Z,6.97
2023-05-10T10:03:00.847Z,4.13
2023-05-10T10:05:34.966Z,5.03
2023-05-10T10:08:04.567Z,4.03
2023-05-10T10:10:33.962Z,4.90
2023-05-10T10:13:01.525Z,6.73
2023-05-10T10:15:28.828Z,5.28
2023-05-10T10:17:55.997Z,4.07
2023-05-10T10:20:25.105Z,6.72
2023-05-10T10:22:52.415Z,8.00
2023-05-10T10:25:22.890Z,5.40
2023-05-10T10:27:53.011Z,3.97
2023-05-10T10:30:42.810Z,2.53
2023-05-10T10:33:35.137Z,5.35
2023-05-10T10:36:04.390Z,5.05
2023-05-10T10:38:49.921Z,6.28
2023-05-10T10:41:36.943Z,5.78
2023-05-10T10:44:25.722Z,6.38
2023-05-10T10:47:24.525Z,2.50
2023-05-10T10:49:59.454Z,4.28
2023-05-10T10:52:36.600Z,5.22
2023-05-10T10:55:14.312Z,6.32
2023-05-10T10:57:41.639Z,7.05
2023-05-10T11:00:21.444Z,6.75
2023-05-10T11:02:52.595Z,8.80
2023-05-10T11:05:34.603Z,6.47
2023-05-10T11:08:08.651Z,4.60
2023-05-10T11:10:35.674Z,6.15
2023-05-10T11:13:07.924Z,7.45
2023-05-10T11:15:36.921Z,7.22
2023-05-10T11:18:21.820Z,5.22
2023-05-10T11:21:03.759Z,7.10
2023-05-10T11:23:41.088Z,6.70
2023-05-10T11:26:12.322Z,5.60
2023-05-10T11:28:46.772Z,7.25
2023-05-10T11:31:19.016Z,7.68
2023-05-10T11:33:48.021Z,4.65
2023-05-10T11:36:24.634Z,12.05
2023-05-10T11:38:51.824Z,5.70
2023-05-10T11:41:22.921Z,7.28
2023-05-10T11:43:57.306Z,6.75
2023-05-10T11:46:28.414Z,5.25
2023-05-10T11:49:02.651Z,5.13
2023-05-10T11:51:29.952Z,13.10
2023-05-10T11:53:58.245Z,8.90
2023-05-10T11:56:27.408Z,5.97
2023-05-10T11:58:59.167Z,5.85
2023-05-10T12:01:28.473Z,6.88
2023-05-10T12:03:59.806Z,7.60
2023-05-10T12:06:32.840Z,12.40
2023-05-10T12:09:00.731Z,7.10
2023-05-10T12:11:29.408Z,9.82
2023-05-10T12:13:57.773Z,7.90
2023-05-10T12:16:29.298Z,7.00
2023-05-10T12:19:01.881Z,12.68
2023-05-10T12:21:31.788Z,5.15
2023-05-10T12:24:08.331Z,4.20
2023-05-10T12:26:36.411Z,5.97
2023-05-10T12:29:17.745Z,9.13
2023-05-10T12:31:53.125Z,11.73
2023-05-10T12:34:28.176Z,16.55
2023-05-10T12:36:56.016Z,9.15
2023-05-10T12:39:23.288Z,8.57
2023-05-10T12:41:50.491Z,11.88
2023-05-10T12:44:18.144Z,5.57
2023-05-10T12:46:45.181Z,11.40
2023-05-10T12:49:12.353Z,5.78
2023-05-10T12:51:39.348Z,10.40
2023-05-10T12:54:06.457Z,5.50
2023-05-10T12:56:33.577Z,6.47
2023-05-10T12:59:00.836Z,8.68
2023-05-10T13:01:27.939Z,72.47
2023-05-10T13:03:55.049Z,16.70
2023-05-10T13:06:22.123Z,11.02
2023-05-10T13:08:49.163Z,11.45
2023-05-10T13:11:18.078Z,10.48
2023-05-10T13:13:46.787Z,7.43
2023-05-10T13:16:13.887Z,3.75
2023-05-10T13:18:41.057Z,10.10
2023-05-10T13:21:08.671Z,7.82
2023-05-10T13:23:35.990Z,6.00
2023-05-10T13:26:02.994Z,3.75
2023-05-10T13:28:30.671Z,5.63
2023-05-10T13:30:57.865Z,4.65
2023-05-10T13:33:25.137Z,6.32
2023-05-10T13:35:54.373Z,4.35
2023-05-10T13:38:22.848Z,6.20
2023-05-10T13:40:53.661Z,17.77
2023-05-10T13:43:21.229Z,8.15
2023-05-10T13:45:48.491Z,4.38
2023-05-10T13:48:15.607Z,30.77
2023-05-10T13:50:42.580Z,8.63
2023-05-10T13:53:09.669Z,6.85
2023-05-10T13:55:36.965Z,4.00
2023-05-10T13:58:03.961Z,11.05
2023-05-10T14:00:31.221Z,4.80
2023-05-10T14:02:58.350Z,13.50
2023-05-10T14:05:26.489Z,4.82
2023-05-10T14:07:54.942Z,8.93
2023-05-10T14:10:22.066Z,3.50
2023-05-10T14:12:49.160Z,5.70
2023-05-10T14:15:16.722Z,4.95
2023-05-10T14:17:44.106Z,8.13
2023-05-10T14:20:11.931Z,5.97
2023-05-10T14:22:38.914Z,8.13
2023-05-10T14:25:06.183Z,13.43
2023-05-10T14:27:33.509Z,3.35
2023-05-10T14:30:00.596Z,2.90
2023-05-10T14:32:28.563Z,3.97
2023-05-10T14:34:55.760Z,5.18
2023-05-10T14:37:22.866Z,11.43
2023-05-10T14:39:49.972Z,7.57
2023-05-10T14:42:16.942Z,7.85
2023-05-10T14:44:44.040Z,11.88
2023-05-10T14:47:12.204Z,21.30
2023-05-10T14:49:39.654Z,9.18
2023-05-10T14:52:06.662Z,8.07
2023-05-10T14:54:34.641Z,4.22
2023-05-10T14:57:01.810Z,6.68
2023-05-10T14:59:28.906Z,7.30
2023-05-10T15:01:56.702Z,6.18
2023-05-10T15:04:25.103Z,6.43
2023-05-10T15:07:00.187Z,7.85
2023-05-10T15:09:28.805Z,8.15
2023-05-10T15:11:56.696Z,11.15
2023-05-10T15:14:24.213Z,10.75
2023-05-10T15:16:51.312Z,11.82
2023-05-10T15:19:18.435Z,11.02
2023-05-10T15:21:45.703Z,12.48
2023-05-10T15:24:12.866Z,18.75
2023-05-10T15:26:39.973Z,13.82
2023-05-10T15:29:07.404Z,16.85
2023-05-10T15:31:37.463Z,20.83
2023-05-10T15:34:04.643Z,10.98
2023-05-10T15:36:33.204Z,9.68
2023-05-10T15:39:00.336Z,13.27
2023-05-10T15:41:27.411Z,8.57
2023-05-10T15:43:55.239Z,8.25
2023-05-10T15:46:22.765Z,11.70
2023-05-10T15:48:49.939Z,26.27
2023-05-10T15:51:18.727Z,11.48
2023-05-10T15:54:00.472Z,10.45
2023-05-10T15:56:32.745Z,11.35
2023-05-10T15:58:59.896Z,17.58
2023-05-10T16:01:27.066Z,9.15
2023-05-10T16:03:54.197Z,14.95
2023-05-10T16:06:21.602Z,21.95
2023-05-10T16:08:48.802Z,9.07
2023-05-10T16:11:16.040Z,6.35
2023-05-10T16:13:43.083Z,18.80
2023-05-10T16:16:10.189Z,22.67
2023-05-10T16:18:37.477Z,12.40
2023-05-10T16:21:04.919Z,26.38
2023-05-10T16:23:32.281Z,17.17
2023-05-10T16:25:59.584Z,16.92
2023-05-10T16:28:26.684Z,13.77
2023-05-10T16:30:53.859Z,19.27
2023-05-10T16:33:21.266Z,24.42
2023-05-10T16:35:48.388Z,16.45
2023-05-10T16:38:15.587Z,13.43
2023-05-10T16:40:42.636Z,17.52
2023-05-10T16:43:09.632Z,14.48
2023-05-10T16:45:36.714Z,14.13
2023-05-10T16:48:04.074Z,12.18
2023-05-10T16:50:31.428Z,14.85
2023-05-10T16:52:58.858Z,14.65
2023-05-10T16:55:26.553Z,16.23
2023-05-10T16:57:59.749Z,20.90
2023-05-10T17:00:27.555Z,19.50
2023-05-10T17:02:55.128Z,25.38
2023-05-10T17:05:23.045Z,28.48
2023-05-10T17:07:50.689Z,29.45
2023-05-10T17:10:18.141Z,27.70
2023-05-10T17:12:45.790Z,15.48
2023-05-10T17:15:13.214Z,31.98
2023-05-10T17:17:40.573Z,29.45
2023-05-10T17:20:08.488Z,13.98
2023-05-10T17:22:36.094Z,19.77
2023-05-10T17:25:04.354Z,16.90
2023-05-10T17:27:32.247Z,18.60
2023-05-10T17:29:59.622Z,13.35
2023-05-10T17:32:27.213Z,24.63
2023-05-10T17:34:54.453Z,12.05
2023-05-10T17:37:21.636Z,8.63
2023-05-10T17:39:48.711Z,14.63
2023-05-10T17:42:18.465Z,13.38
2023-05-10T17:44:45.585Z,14.77
2023-05-10T17:47:12.660Z,7.85
2023-05-10T17:49:40.091Z,7.45
2023-05-10T17:52:07.535Z,8.07
2023-05-10T17:54:34.916Z,10.73
2023-05-10T17:57:02.188Z,12.20
2023-05-10T17:59:29.530Z,12.35
2023-05-10T18:01:56.646Z,6.25
2023-05-10T18:04:23.821Z,6.82
2023-05-10T18:06:50.817Z,15.05
2023-05-10T18:09:18.297Z,8.93
2023-05-10T18:11:45.430Z,13.77
2023-05-10T18:14:12.753Z,14.20
2023-05-10T18:16:39.809Z,9.80
2023-05-10T18:19:06.971Z,6.43
2023-05-10T18:21:34.389Z,13.15
2023-05-10T18:24:01.894Z,12.25
2023-05-10T18:26:29.381Z,10.40
2023-05-10T18:28:57.326Z,11.85
2023-05-10T18:31:25.719Z,10.55
2023-05-10T18:33:52.879Z,13.23
2023-05-10T18:36:20.080Z,13.95
2023-05-10T18:38:47.109Z,14.77
2023-05-10T18:41:14.730Z,15.90
2023-05-10T18:43:43.095Z,10.00
2023-05-10T18:46:10.242Z,16.70
2023-05-10T18:48:37.587Z,6.55
2023-05-10T18:51:05.122Z,9.85
2023-05-10T18:53:32.729Z,21.80
2023-05-10T18:56:00.331Z,8.98
2023-05-10T18:58:28.550Z,12.13
2023-05-10T19:00:56.053Z,9.25
2023-05-10T19:03:23.146Z,12.18
2023-05-10T19:05:50.454Z,10.52
2023-05-10T19:08:18.166Z,5.18
2023-05-10T19:10:46.028Z,11.77
2023-05-10T19:13:15.065Z,12.75
2023-05-10T19:15:42.308Z,5.55
2023-05-10T19:18:09.729Z,5.40
2023-05-10T19:20:38.168Z,6.05
2023-05-10T19:23:10.061Z,32.55
2023-05-10T19:25:39.414Z,7.68
2023-05-10T19:28:06.562Z,7.18
2023-05-10T19:30:33.567Z,8.27
2023-05-10T19:33:04.500Z,6.28
2023-05-10T19:35:31.486Z,13.10
2023-05-10T19:37:58.670Z,5.50
2023-05-10T19:40:25.762Z,10.18
2023-05-10T19:42:54.637Z,15.75
2023-05-10T19:45:21.630Z,9.07
2023-05-10T19:47:49.013Z,12.80
2023-05-10T19:50:19.238Z,10.98
2023-05-10T19:52:46.784Z,9.88
2023-05-10T19:55:15.917Z,19.83
2023-05-10T19:57:43.141Z,18.27
2023-05-10T20:00:10.801Z,14.02
2023-05-10T20:02:40.964Z,10.70
2023-05-10T20:05:08.458Z,13.85
2023-05-10T20:07:37.240Z,11.27
2023-05-10T20:10:04.436Z,11.07
2023-05-10T20:12:31.676Z,12.55
2023-05-10T20:14:58.863Z,14.40
2023-05-10T20:17:26.039Z,7.68
2023-05-10T20:19:53.156Z,14.48
2023-05-10T20:22:20.168Z,16.25
2023-05-10T20:24:47.694Z,8.95
2023-05-10T20:27:14.945Z,10.77
2023-05-10T20:29:42.009Z,13.57
2023-05-10T20:32:09.026Z,24.30
2023-05-10T20:34:36.070Z,16.92
2023-05-10T20:37:03.153Z,25.88
2023-05-10T20:39:30.242Z,27.05
2023-05-10T20:41:57.286Z,17.55
2023-05-10T20:44:24.357Z,21.08
2023-05-10T20:46:51.439Z,19.90
2023-05-10T20:49:19.793Z,23.65
2023-05-10T20:51:46.929Z,19.58
2023-05-10T20:54:14.879Z,18.33
2023-05-10T20:56:41.894Z,12.65
2023-05-10T20:59:09.073Z,13.73
2023-05-10T21:01:36.143Z,22.13
2023-05-10T21:04:03.901Z,19.95
2023-05-10T21:06:32.096Z,25.50
2023-05-10T21:08:59.286Z,17.13
2023-05-10T21:11:26.398Z,22.63
2023-05-10T21:13:53.424Z,13.52
2023-05-10T21:16:20.745Z,15.52
2023-05-10T21:18:47.885Z,10.32
2023-05-10T21:21:14.856Z,18.35
2023-05-10T21:23:41.867Z,14.80
2023-05-10T21:26:08.886Z,11.07
2023-05-10T21:28:36.944Z,9.60
2023-05-10T21:31:05.378Z,10.25
2023-05-10T21:33:32.353Z,4.10
2023-05-10T21:35:59.438Z,6.82
2023-05-10T21:38:28.242Z,8.57
2023-05-10T21:40:55.591Z,7.45
2023-05-10T21:43:22.651Z,7.57
2023-05-10T21:45:50.463Z,12.45
2023-05-10T21:48:17.531Z,12.10
2023-05-10T21:50:44.611Z,10.98
2023-05-10T21:53:11.923Z,11.23
2023-05-10T21:55:39.164Z,8.45
2023-05-10T21:58:06.343Z,13.27
2023-05-10T22:00:34.276Z,5.78
2023-05-10T22:03:02.024Z,16.55
2023-05-10T22:05:29.377Z,8.05
2023-05-10T22:07:56.492Z,34.40
2023-05-10T22:10:23.493Z,26.35
2023-05-10T22:12:50.775Z,38.17
2023-05-10T22:15:17.859Z,24.63
2023-05-10T22:17:45.003Z,10.00
2023-05-10T22:20:12.186Z,19.02
2023-05-10T22:22:39.307Z,22.08
2023-05-10T22:25:07.744Z,23.58
2023-05-10T22:27:35.238Z,17.20
2023-05-10T22:30:03.191Z,28.42
2023-05-10T22:32:35.717Z,30.02
2023-05-10T22:35:03.441Z,14.30
2023-05-10T22:37:32.624Z,25.58
2023-05-10T22:39:59.710Z,18.65
2023-05-10T22:42:26.851Z,25.92
2023-05-10T22:44:53.966Z,22.50
2023-05-10T22:47:21.044Z,24.80
2023-05-10T22:49:48.587Z,26.15
2023-05-10T22:52:15.698Z,33.90
2023-05-10T22:54:44.401Z,27.80
2023-05-10T22:57:11.647Z,26.35
2023-05-10T22:59:38.717Z,21.13
2023-05-10T23:02:06.177Z,21.50
2023-05-10T23:04:33.341Z,14.82
2023-05-10T23:07:00.445Z,20.85
2023-05-10T23:09:27.420Z,18.27
2023-05-10T23:11:54.439Z,20.95
2023-05-10T23:14:21.500Z,31.67
2023-05-10T23:16:48.597Z,25.08
2023-05-10T23:19:15.804Z,37.83
2023-05-10T23:21:43.079Z,36.67
2023-05-10T23:24:10.056Z,37.00
2023-05-10T23:26:37.086Z,26.35
2023-05-10T23:29:04.096Z,29.90
2023-05-10T23:31:31.455Z,40.72
2023-05-10T23:33:58.604Z,24.05
2023-05-10T23:36:25.952Z,21.50
2023-05-10T23:38:53.022Z,19.88
2023-05-10T23:41:20.155Z,21.88
2023-05-10T23:43:47.250Z,29.98
2023-05-10T23:46:14.309Z,17.73
2023-05-10T23:48:41.559Z,19.38
2023-05-10T23:51:08.658Z,21.88
2023-05-10T23:53:35.670Z,26.35
2023-05-10T23:56:02.759Z,19.55
2023-05-10T23:58:29.786Z,26.48
